createdAt,value
2017-12-03T00:00:01.798Z,-0.10
2017-12-03T00:02:29.452Z,-0.20
2017-12-03T00:04:57.143Z,0.00
2017-12-03T00:07:25.572Z,-0.10
2017-12-03T00:09:53.277Z,-0.10
2017-12-03T00:12:20.943Z,-0.10
2017-12-03T00:14:49.457Z,0.10
2017-12-03T00:17:17.106Z,0.10
2017-12-03T00:19:44.830Z,-0.10
2017-12-03T00:22:12.486Z,-0.10
2017-12-03T00:24:40.202Z,-0.10
2017-12-03T00:27:07.859Z,-0.20
2017-12-03T00:29:35.584Z,-0.10
2017-12-03T00:32:04.023Z,-0.20
2017-12-03T00:34:31.733Z,-0.20
2017-12-03T00:37:00.164Z,-0.20
2017-12-03T00:39:27.868Z,-0.20
2017-12-03T00:41:56.298Z,-0.20
2017-12-03T00:44:23.958Z,-0.20
2017-12-03T00:46:51.663Z,-0.20
2017-12-03T00:49:20.088Z,0.00
2017-12-03T00:51:47.795Z,0.00
2017-12-03T00:54:16.218Z,-0.20
2017-12-03T00:56:43.921Z,-0.20
2017-12-03T00:59:11.578Z,-0.20
2017-12-03T01:01:39.290Z,-0.20
2017-12-03T01:04:06.957Z,-0.10
2017-12-03T01:06:34.654Z,0.00
2017-12-03T01:09:02.366Z,-0.10
2017-12-03T01:11:30.067Z,0.10
2017-12-03T01:13:57.723Z,0.10
2017-12-03T01:16:25.427Z,0.10
2017-12-03T01:18:53.082Z,0.00
2017-12-03T01:21:20.798Z,0.10
2017-12-03T01:23:48.459Z,0.00
2017-12-03T01:26:16.199Z,-0.10
2017-12-03T01:28:43.919Z,0.00
2017-12-03T01:31:12.351Z,0.00
2017-12-03T01:33:40.059Z,0.00
2017-12-03T01:36:08.476Z,0.10
2017-12-03T01:38:36.934Z,0.20
2017-12-03T01:41:04.610Z,0.20
2017-12-03T01:43:32.318Z,0.30
2017-12-03T01:46:00.757Z,-0.10
2017-12-03T01:48:29.325Z,-0.20
2017-12-03T01:50:57.014Z,-0.20
2017-12-03T01:53:24.748Z,-0.30
2017-12-03T01:55:52.425Z,-0.20
2017-12-03T01:58:20.141Z,-0.10
2017-12-03T02:00:47.872Z,-0.10
2017-12-03T02:03:15.606Z,0.00
2017-12-03T02:05:43.339Z,0.10
2017-12-03T02:08:11.129Z,0.00
2017-12-03T02:10:39.579Z,0.00
2017-12-03T02:13:07.306Z,0.00
2017-12-03T02:15:35.780Z,0.10
2017-12-03T02:18:04.253Z,0.10
2017-12-03T02:20:32.791Z,0.20
2017-12-03T02:23:00.505Z,0.20
2017-12-03T02:25:28.983Z,0.00
2017-12-03T02:27:57.422Z,0.00
2017-12-03T02:30:25.913Z,0.00
2017-12-03T02:32:53.718Z,-0.10
2017-12-03T02:35:21.581Z,-0.10
2017-12-03T02:37:50.623Z,0.10
2017-12-03T02:40:18.469Z,0.00
2017-12-03T02:42:46.227Z,0.00
2017-12-03T02:45:14.054Z,-0.10
2017-12-03T02:47:42.078Z,-0.10
2017-12-03T02:50:10.727Z,0.10
2017-12-03T02:52:38.698Z,0.10
2017-12-03T02:55:06.455Z,0.10
2017-12-03T02:57:34.277Z,0.10
2017-12-03T03:00:02.028Z,0.20
2017-12-03T03:02:29.908Z,0.20
2017-12-03T03:05:02.146Z,0.20
2017-12-03T03:07:34.072Z,0.20
2017-12-03T03:10:04.008Z,0.10
2017-12-03T03:12:31.734Z,0.10
2017-12-03T03:14:59.414Z,0.00
2017-12-03T03:17:27.129Z,-0.30
2017-12-03T03:19:55.602Z,-0.10
2017-12-03T03:22:24.118Z,-0.20
2017-12-03T03:24:51.786Z,-0.20
2017-12-03T03:27:19.535Z,-0.20
2017-12-03T03:29:47.208Z,0.00
2017-12-03T03:32:14.940Z,0.00
2017-12-03T03:34:43.385Z,0.20
2017-12-03T03:37:11.162Z,0.10
2017-12-03T03:39:39.651Z,0.00
2017-12-03T03:42:11.624Z,0.10
2017-12-03T03:44:40.169Z,0.10
2017-12-03T03:47:07.914Z,0.10
2017-12-03T03:49:35.631Z,0.30
2017-12-03T03:52:03.306Z,0.20
2017-12-03T03:54:31.022Z,0.30
2017-12-03T03:56:58.731Z,0.30
2017-12-03T03:59:26.443Z,0.40
2017-12-03T04:01:54.930Z,0.30
2017-12-03T04:04:23.467Z,0.40
2017-12-03T04:06:51.155Z,0.30
2017-12-03T04:09:18.875Z,0.30
2017-12-03T04:11:46.582Z,0.40
2017-12-03T04:14:15.083Z,0.20
2017-12-03T04:16:42.812Z,0.20
2017-12-03T04:19:10.540Z,0.20
2017-12-03T04:21:38.233Z,0.20
2017-12-03T04:24:06.004Z,0.30
2017-12-03T04:26:34.452Z,0.40
2017-12-03T04:29:02.175Z,0.40
2017-12-03T04:31:29.854Z,0.40
2017-12-03T04:33:57.571Z,0.40
2017-12-03T04:36:26.131Z,0.30
2017-12-03T04:38:53.859Z,0.30
2017-12-03T04:41:21.629Z,0.40
2017-12-03T04:43:49.343Z,0.40
2017-12-03T04:46:17.900Z,0.40
2017-12-03T04:48:45.630Z,0.40
2017-12-03T04:51:13.435Z,0.30
2017-12-03T04:53:41.939Z,0.30
2017-12-03T04:56:09.707Z,0.30
2017-12-03T04:58:37.431Z,0.30
2017-12-03T05:01:05.208Z,0.30
2017-12-03T05:03:33.671Z,0.20
2017-12-03T05:06:02.182Z,0.20
2017-12-03T05:08:29.930Z,0.10
2017-12-03T05:10:57.740Z,0.30
2017-12-03T05:13:25.463Z,0.30
2017-12-03T05:15:53.222Z,0.20
2017-12-03T05:18:20.933Z,0.30
2017-12-03T05:20:48.638Z,0.20
2017-12-03T05:23:16.399Z,0.30
2017-12-03T05:25:44.110Z,0.20
2017-12-03T05:28:11.870Z,0.30
2017-12-03T05:30:39.603Z,0.30
2017-12-03T05:33:07.362Z,0.30
2017-12-03T05:35:35.087Z,0.30
2017-12-03T05:38:03.614Z,0.30
2017-12-03T05:40:31.344Z,0.20
2017-12-03T05:42:59.862Z,0.20
2017-12-03T05:45:27.563Z,0.20
2017-12-03T05:47:56.105Z,0.20
2017-12-03T05:50:24.819Z,0.20
2017-12-03T05:52:52.548Z,0.20
2017-12-03T05:55:20.316Z,0.20
2017-12-03T05:57:48.036Z,0.20
2017-12-03T06:00:16.593Z,0.20
2017-12-03T06:02:45.075Z,0.20
2017-12-03T06:05:13.631Z,0.10
2017-12-03T06:07:41.332Z,0.10
2017-12-03T06:10:09.107Z,0.00
2017-12-03T06:12:37.082Z,0.10
2017-12-03T06:15:04.975Z,0.10
2017-12-03T06:17:32.743Z,0.10
2017-12-03T06:20:01.541Z,0.10
2017-12-03T06:22:29.431Z,0.10
2017-12-03T06:24:57.948Z,0.10
2017-12-03T06:27:25.723Z,0.10
2017-12-03T06:29:53.454Z,0.10
2017-12-03T06:32:21.235Z,0.20
2017-12-03T06:34:48.974Z,0.20
2017-12-03T06:37:16.722Z,0.10
2017-12-03T06:39:45.200Z,0.00
2017-12-03T06:42:12.946Z,0.00
2017-12-03T06:44:41.440Z,-0.20
2017-12-03T06:47:09.226Z,-0.20
2017-12-03T06:49:36.951Z,-0.10
2017-12-03T06:52:05.458Z,-0.10
2017-12-03T06:54:33.239Z,-0.10
2017-12-03T06:57:00.971Z,-0.10
2017-12-03T06:59:28.752Z,-0.10
2017-12-03T07:01:56.480Z,0.00
2017-12-03T07:04:24.293Z,0.00
2017-12-03T07:06:51.999Z,0.00
2017-12-03T07:09:20.523Z,-0.10
2017-12-03T07:11:48.261Z,-0.10
2017-12-03T07:14:16.035Z,-0.10
2017-12-03T07:16:43.769Z,-0.10
2017-12-03T07:19:12.310Z,-0.10
2017-12-03T07:21:40.102Z,-0.10
2017-12-03T07:24:08.602Z,-0.20
2017-12-03T07:26:36.375Z,-0.20
2017-12-03T07:29:04.107Z,-0.10
2017-12-03T07:31:32.664Z,-0.20
2017-12-03T07:34:00.390Z,-0.20
2017-12-03T07:36:28.162Z,-0.10
2017-12-03T07:38:55.932Z,0.00
2017-12-03T07:41:23.750Z,-0.10
2017-12-03T07:43:51.554Z,-0.20
2017-12-03T07:46:19.367Z,-0.10
2017-12-03T07:48:47.862Z,0.00
2017-12-03T07:51:15.667Z,-0.10
2017-12-03T07:53:43.408Z,0.00
2017-12-03T07:56:11.159Z,0.00
2017-12-03T07:58:38.863Z,0.00
2017-12-03T08:01:06.650Z,-0.10
2017-12-03T08:03:35.158Z,-0.20
2017-12-03T08:06:02.934Z,-0.20
2017-12-03T08:08:30.695Z,-0.20
2017-12-03T08:10:58.443Z,-0.20
2017-12-03T08:13:26.170Z,-0.30
2017-12-03T08:15:54.746Z,-0.30
2017-12-03T08:18:23.246Z,-0.40
2017-12-03T08:20:52.913Z,-0.40
2017-12-03T08:23:23.094Z,-0.20
2017-12-03T08:25:52.097Z,-0.20
2017-12-03T08:28:21.175Z,-0.30
2017-12-03T08:30:52.280Z,-0.20
2017-12-03T08:33:22.261Z,-0.20
2017-12-03T08:35:50.952Z,-0.20
2017-12-03T08:38:20.489Z,-0.20
2017-12-03T08:40:49.648Z,-0.20
2017-12-03T08:43:19.868Z,-0.30
2017-12-03T08:45:49.768Z,-0.20
2017-12-03T08:48:18.351Z,-0.20
2017-12-03T08:50:47.482Z,-0.20
2017-12-03T08:53:16.723Z,-0.20
2017-12-03T08:55:46.976Z,-0.20
2017-12-03T08:58:17.279Z,-0.20
2017-12-03T09:00:45.229Z,-0.20
2017-12-03T09:03:12.967Z,-0.10
2017-12-03T09:05:40.734Z,-0.10
2017-12-03T09:08:08.427Z,-0.10
2017-12-03T09:10:36.219Z,0.00
2017-12-03T09:13:04.719Z,0.00
2017-12-03T09:15:32.482Z,0.00
2017-12-03T09:18:00.318Z,0.00
2017-12-03T09:20:28.087Z,0.00
2017-12-03T09:22:56.586Z,-0.10
2017-12-03T09:25:24.413Z,-0.10
2017-12-03T09:27:52.139Z,-0.30
2017-12-03T09:30:19.875Z,-0.30
2017-12-03T09:32:47.649Z,-0.20
2017-12-03T09:35:15.538Z,-0.20
2017-12-03T09:37:43.356Z,-0.10
2017-12-03T09:40:11.095Z,-0.10
2017-12-03T09:42:39.626Z,0.00
2017-12-03T09:45:07.355Z,-0.10
2017-12-03T09:47:35.122Z,0.00
2017-12-03T09:50:02.911Z,0.00
2017-12-03T09:52:31.066Z,0.00
2017-12-03T09:54:58.798Z,-0.10
2017-12-03T09:57:27.886Z,-0.20
2017-12-03T09:59:55.675Z,-0.20
2017-12-03T10:02:23.462Z,-0.20
2017-12-03T10:04:51.191Z,-0.20
2017-12-03T10:07:18.967Z,-0.10
2017-12-03T10:09:46.716Z,-0.20
2017-12-03T10:12:14.507Z,-0.20
2017-12-03T10:14:42.266Z,-0.20
2017-12-03T10:17:10.042Z,-0.10
2017-12-03T10:19:37.778Z,-0.20
2017-12-03T10:22:05.551Z,-0.10
2017-12-03T10:24:33.308Z,-0.10
2017-12-03T10:27:01.058Z,-0.10
2017-12-03T10:29:28.878Z,-0.10
2017-12-03T10:31:56.615Z,-0.20
2017-12-03T10:34:24.390Z,-0.30
2017-12-03T10:36:52.123Z,-0.30
2017-12-03T10:39:19.993Z,-0.30
2017-12-03T10:41:47.684Z,-0.20
2017-12-03T10:44:15.437Z,-0.30
2017-12-03T10:46:43.111Z,-0.30
2017-12-03T10:49:11.595Z,-0.30
2017-12-03T10:51:40.107Z,-0.20
2017-12-03T10:54:07.837Z,-0.20
2017-12-03T10:56:36.347Z,-0.10
2017-12-03T10:59:04.132Z,-0.10
2017-12-03T11:01:31.814Z,-0.10
2017-12-03T11:04:12.860Z,-0.20
2017-12-03T11:06:41.514Z,-0.10
2017-12-03T11:09:09.512Z,-0.10
2017-12-03T11:11:37.214Z,-0.10
2017-12-03T11:14:05.718Z,-0.10
2017-12-03T11:16:33.383Z,-0.10
2017-12-03T11:19:01.061Z,-0.10
2017-12-03T11:21:28.827Z,-0.20
2017-12-03T11:23:56.531Z,-0.20
2017-12-03T11:26:25.023Z,-0.10
2017-12-03T11:28:53.479Z,-0.10
2017-12-03T11:31:21.191Z,-0.10
2017-12-03T11:33:48.876Z,-0.10
2017-12-03T11:36:16.604Z,-0.10
2017-12-03T11:38:44.298Z,-0.10
2017-12-03T11:41:12.010Z,-0.10
2017-12-03T11:43:39.712Z,0.00
2017-12-03T11:46:07.482Z,0.00
2017-12-03T11:48:35.163Z,0.10
2017-12-03T11:51:02.879Z,0.00
2017-12-03T11:53:30.544Z,0.00
2017-12-03T11:55:58.246Z,0.00
2017-12-03T11:58:25.902Z,-0.10
2017-12-03T12:00:53.611Z,-0.10
2017-12-03T12:03:21.270Z,-0.10
2017-12-03T12:05:48.971Z,0.00
2017-12-03T12:08:16.632Z,0.00
2017-12-03T12:10:44.340Z,0.00
2017-12-03T12:13:12.006Z,0.10
2017-12-03T12:15:39.711Z,0.10
2017-12-03T12:18:07.366Z,0.10
2017-12-03T12:20:35.123Z,0.20
2017-12-03T12:23:02.806Z,0.20
2017-12-03T12:25:30.503Z,0.20
2017-12-03T12:27:58.202Z,0.30
2017-12-03T12:30:25.866Z,0.20
2017-12-03T12:32:54.067Z,0.20
2017-12-03T12:35:22.536Z,0.30
2017-12-03T12:37:51.015Z,0.40
2017-12-03T12:40:19.447Z,0.40
2017-12-03T12:42:47.183Z,0.30
2017-12-03T12:45:14.896Z,0.30
2017-12-03T12:47:42.648Z,0.30
2017-12-03T12:50:10.376Z,0.30
2017-12-03T12:52:38.183Z,0.30
2017-12-03T12:55:05.927Z,0.20
2017-12-03T12:57:33.720Z,0.20
2017-12-03T13:00:02.206Z,0.30
2017-12-03T13:02:30.698Z,0.30
2017-12-03T13:04:58.369Z,0.20
2017-12-03T13:07:26.100Z,0.30
2017-12-03T13:09:54.519Z,0.40
2017-12-03T13:12:23.072Z,0.40
2017-12-03T13:14:51.063Z,0.40
2017-12-03T13:17:20.405Z,0.30
2017-12-03T13:19:48.605Z,0.30
2017-12-03T13:22:16.281Z,0.30
2017-12-03T13:24:43.979Z,0.20
2017-12-03T13:27:11.849Z,0.20
2017-12-03T13:29:39.570Z,0.20
2017-12-03T13:32:07.247Z,0.20
2017-12-03T13:34:34.979Z,0.20
2017-12-03T13:37:02.813Z,0.20
2017-12-03T13:39:30.665Z,0.20
2017-12-03T13:41:59.245Z,0.30
2017-12-03T13:44:26.953Z,0.20
2017-12-03T13:46:54.870Z,0.30
2017-12-03T13:49:22.649Z,0.20
2017-12-03T13:51:51.096Z,0.20
2017-12-03T13:54:18.787Z,0.20
2017-12-03T13:56:47.263Z,0.20
2017-12-03T13:59:15.214Z,0.20
2017-12-03T14:01:42.919Z,0.20
2017-12-03T14:04:11.203Z,0.20
2017-12-03T14:06:38.966Z,0.20
2017-12-03T14:09:06.963Z,0.20
2017-12-03T14:11:36.511Z,0.10
2017-12-03T14:14:04.280Z,0.10
2017-12-03T14:16:32.076Z,0.10
2017-12-03T14:18:59.960Z,0.10
2017-12-03T14:21:28.967Z,0.10
2017-12-03T14:23:58.166Z,0.00
2017-12-03T14:26:28.746Z,0.10
2017-12-03T14:28:59.151Z,0.00
2017-12-03T14:31:27.627Z,0.10
2017-12-03T14:33:55.294Z,0.10
2017-12-03T14:36:22.984Z,0.10
2017-12-03T14:38:50.678Z,0.10
2017-12-03T14:41:19.103Z,0.10
2017-12-03T14:43:46.800Z,0.10
2017-12-03T14:46:14.554Z,0.10
2017-12-03T14:48:42.298Z,0.10
2017-12-03T14:51:09.951Z,0.10
2017-12-03T14:53:37.648Z,0.10
2017-12-03T14:56:05.315Z,0.10
2017-12-03T14:58:33.802Z,0.10
2017-12-03T15:01:02.229Z,0.00
2017-12-03T15:03:30.007Z,0.00
2017-12-03T15:05:57.732Z,0.00
2017-12-03T15:08:25.442Z,0.00
2017-12-03T15:10:53.106Z,0.00
2017-12-03T15:13:20.875Z,0.00
2017-12-03T15:15:49.340Z,0.00
2017-12-03T15:18:17.110Z,0.00
2017-12-03T15:20:44.832Z,0.00
2017-12-03T15:23:12.551Z,0.00
2017-12-03T15:25:41.083Z,0.10
2017-12-03T15:28:08.807Z,0.10
2017-12-03T15:30:36.571Z,0.10
2017-12-03T15:33:04.292Z,0.10
2017-12-03T15:35:32.047Z,0.10
2017-12-03T15:37:59.767Z,0.10
2017-12-03T15:40:27.532Z,0.10
2017-12-03T15:42:55.289Z,0.10
2017-12-03T15:45:23.070Z,0.10
2017-12-03T15:47:50.790Z,0.10
2017-12-03T15:50:18.506Z,0.10
2017-12-03T15:52:46.262Z,0.10
2017-12-03T15:55:14.015Z,0.10
2017-12-03T15:57:42.675Z,0.00
2017-12-03T16:00:10.399Z,0.00
2017-12-03T16:02:39.058Z,0.00
2017-12-03T16:05:06.808Z,0.00
2017-12-03T16:07:34.570Z,0.00
2017-12-03T16:10:02.259Z,0.00
2017-12-03T16:12:30.771Z,0.00
2017-12-03T16:14:58.489Z,0.00
2017-12-03T16:17:26.989Z,0.00
2017-12-03T16:19:55.461Z,0.00
2017-12-03T16:22:24.016Z,0.00
2017-12-03T16:24:51.730Z,0.00
2017-12-03T16:27:19.603Z,0.00
2017-12-03T16:29:47.305Z,0.10
2017-12-03T16:32:15.024Z,0.00
2017-12-03T16:34:42.775Z,0.10
2017-12-03T16:37:10.505Z,0.10
2017-12-03T16:39:38.999Z,0.10
2017-12-03T16:42:06.688Z,0.10
2017-12-03T16:44:34.439Z,0.10
2017-12-03T16:47:02.102Z,0.10
2017-12-03T16:49:29.834Z,0.10
2017-12-03T16:51:57.506Z,0.10
2017-12-03T16:54:25.222Z,0.10
2017-12-03T16:56:52.899Z,0.00
2017-12-03T16:59:21.437Z,0.10
2017-12-03T17:01:49.136Z,0.10
2017-12-03T17:04:17.647Z,0.10
2017-12-03T17:06:45.315Z,0.10
2017-12-03T17:09:13.047Z,0.10
2017-12-03T17:11:41.494Z,0.10
2017-12-03T17:14:09.170Z,0.10
2017-12-03T17:16:37.702Z,0.10
2017-12-03T17:19:05.579Z,0.10
2017-12-03T17:21:33.383Z,0.10
2017-12-03T17:24:01.858Z,0.10
2017-12-03T17:26:30.798Z,0.10
2017-12-03T17:28:58.740Z,0.10
2017-12-03T17:31:26.658Z,0.00
2017-12-03T17:33:54.408Z,0.00
2017-12-03T17:38:56.014Z,0.00
2017-12-03T17:41:24.574Z,0.10
2017-12-03T17:43:52.457Z,0.00
2017-12-03T17:46:21.600Z,0.10
2017-12-03T17:48:49.347Z,0.10
2017-12-03T17:51:17.063Z,0.10
2017-12-03T17:53:45.712Z,0.10
2017-12-03T17:56:13.515Z,0.10
2017-12-03T17:58:42.135Z,0.10
2017-12-03T18:01:09.890Z,0.10
2017-12-03T18:03:37.612Z,0.10
2017-12-03T18:06:06.043Z,0.10
2017-12-03T18:08:33.755Z,0.10
2017-12-03T18:11:02.215Z,0.20
2017-12-03T18:13:30.178Z,0.20
2017-12-03T18:15:57.856Z,0.20
2017-12-03T18:18:26.318Z,0.20
2017-12-03T18:20:53.976Z,0.20
2017-12-03T18:23:21.730Z,0.20
2017-12-03T18:25:49.427Z,0.20
2017-12-03T18:28:17.162Z,0.30
2017-12-03T18:30:44.895Z,0.20
2017-12-03T18:33:12.604Z,0.20
2017-12-03T18:35:41.091Z,0.30
2017-12-03T18:38:08.918Z,0.30
2017-12-03T18:40:37.470Z,0.30
2017-12-03T18:43:05.567Z,0.20
2017-12-03T18:45:33.416Z,0.30
2017-12-03T18:48:01.244Z,0.30
2017-12-03T18:50:29.033Z,0.20
2017-12-03T18:52:56.791Z,0.30
2017-12-03T18:55:24.620Z,0.40
2017-12-03T18:57:52.420Z,0.40
2017-12-03T19:00:20.327Z,0.30
2017-12-03T19:02:48.951Z,0.30
2017-12-03T19:05:16.775Z,0.30
2017-12-03T19:07:46.832Z,0.30
2017-12-03T19:10:14.639Z,0.30
2017-12-03T19:12:42.624Z,0.30
2017-12-03T19:15:10.416Z,0.30
2017-12-03T19:17:38.144Z,0.30
2017-12-03T19:20:06.671Z,0.30
2017-12-03T19:22:34.390Z,0.30
2017-12-03T19:25:02.831Z,0.30
2017-12-03T19:27:30.590Z,0.30
2017-12-03T19:29:58.283Z,0.40
2017-12-03T19:32:27.129Z,0.30
2017-12-03T19:34:54.844Z,0.30
2017-12-03T19:37:22.579Z,0.30
2017-12-03T19:39:51.039Z,0.40
2017-12-03T19:42:18.772Z,0.30
2017-12-03T19:44:46.498Z,0.30
2017-12-03T19:47:14.219Z,0.40
2017-12-03T19:49:41.920Z,0.30
2017-12-03T19:52:09.797Z,0.40
2017-12-03T19:54:37.504Z,0.40
2017-12-03T19:57:05.279Z,0.40
2017-12-03T19:59:34.587Z,0.40
2017-12-03T20:02:04.211Z,0.40
2017-12-03T20:04:34.039Z,0.50
2017-12-03T20:07:03.523Z,0.50
2017-12-03T20:09:32.796Z,0.50
2017-12-03T20:12:03.266Z,0.50
2017-12-03T20:14:32.126Z,0.50
2017-12-03T20:16:59.914Z,0.40
2017-12-03T20:19:27.626Z,0.50
2017-12-03T20:21:58.078Z,0.50
2017-12-03T20:24:28.852Z,0.50
2017-12-03T20:26:56.737Z,0.50
2017-12-03T20:29:24.463Z,0.50
2017-12-03T20:31:52.435Z,0.50
2017-12-03T20:34:20.152Z,0.40
2017-12-03T20:36:48.667Z,0.50
2017-12-03T20:39:17.110Z,0.50
2017-12-03T20:41:44.915Z,0.50
2017-12-03T20:44:12.672Z,0.50
2017-12-03T20:46:40.399Z,0.40
2017-12-03T20:49:08.199Z,0.40
2017-12-03T20:51:35.868Z,0.50
2017-12-03T20:54:04.350Z,0.50
2017-12-03T20:56:32.024Z,0.50
2017-12-03T20:58:59.776Z,0.50
2017-12-03T21:01:27.451Z,0.50
2017-12-03T21:03:55.167Z,0.50
2017-12-03T21:06:22.847Z,0.40
2017-12-03T21:08:50.575Z,0.50
2017-12-03T21:11:18.286Z,0.50
2017-12-03T21:13:46.029Z,0.50
2017-12-03T21:16:14.532Z,0.50
2017-12-03T21:18:42.290Z,0.50
2017-12-03T21:21:10.055Z,0.50
2017-12-03T21:23:37.790Z,0.50
2017-12-03T21:26:05.530Z,0.50
2017-12-03T21:28:33.240Z,0.50
2017-12-03T21:31:00.978Z,0.50
2017-12-03T21:33:28.658Z,0.50
2017-12-03T21:35:56.393Z,0.50
2017-12-03T21:38:24.056Z,0.50
2017-12-03T21:40:51.813Z,0.50
2017-12-03T21:43:19.511Z,0.40
2017-12-03T21:45:47.995Z,0.40
2017-12-03T21:48:16.446Z,0.50
2017-12-03T21:50:44.152Z,0.40
2017-12-03T21:53:11.819Z,0.30
2017-12-03T21:55:39.527Z,0.30
2017-12-03T21:58:07.200Z,0.40
2017-12-03T22:00:35.676Z,0.50
2017-12-03T22:03:03.824Z,0.50
2017-12-03T22:05:31.535Z,0.50
2017-12-03T22:07:59.201Z,0.50
2017-12-03T22:10:26.903Z,0.50
2017-12-03T22:12:54.607Z,0.50
2017-12-03T22:15:23.043Z,0.50
2017-12-03T22:17:51.554Z,0.60
2017-12-03T22:20:19.992Z,0.60
2017-12-03T22:22:47.687Z,0.60
2017-12-03T22:25:16.117Z,0.60
2017-12-03T22:27:43.828Z,0.50
2017-12-03T22:30:12.267Z,0.60
2017-12-03T22:32:39.975Z,0.60
2017-12-03T22:35:08.409Z,0.60
2017-12-03T22:37:36.499Z,0.50
2017-12-03T22:42:38.243Z,0.60
2017-12-03T22:45:06.674Z,0.50
2017-12-03T22:47:34.391Z,0.50
2017-12-03T22:50:02.061Z,0.50
2017-12-03T22:52:29.790Z,0.50
2017-12-03T22:54:57.456Z,0.70
2017-12-03T22:57:25.115Z,0.70
2017-12-03T22:59:52.839Z,0.70
2017-12-03T23:02:20.515Z,0.60
2017-12-03T23:04:48.260Z,0.70
2017-12-03T23:07:16.191Z,0.70
2017-12-03T23:09:43.907Z,0.60
2017-12-03T23:12:11.574Z,0.70
2017-12-03T23:14:39.311Z,0.70
2017-12-03T23:17:07.002Z,0.60
2017-12-03T23:19:34.702Z,0.70
2017-12-03T23:22:03.170Z,0.70
2017-12-03T23:24:30.943Z,0.70
2017-12-03T23:26:59.769Z,0.70
2017-12-03T23:29:27.554Z,0.70
2017-12-03T23:31:55.263Z,0.80
2017-12-03T23:34:23.771Z,0.70
2017-12-03T23:36:51.432Z,0.70
2017-12-03T23:39:19.154Z,0.70
2017-12-03T23:41:47.647Z,0.70
2017-12-03T23:44:15.319Z,0.70
2017-12-03T23:46:43.065Z,0.70
2017-12-03T23:49:10.783Z,0.70
2017-12-03T23:51:38.542Z,0.80
2017-12-03T23:54:06.230Z,0.80
2017-12-03T23:56:34.765Z,0.80
2017-12-03T23:59:02.484Z,0.80
